Atka, AK

6:34 PM HDT on April 21, 2018 (GMT -0900)
Atka

Weather History for PAAK - January, 2013

Change the Weather History Date:

Monday, January 7, 2013

  Actual Average (PADK) Record (PADK)
Temperature  
Mean Temperature 34 °F -  
Max Temperature 39 °F 37 °F 51 °F (2011)
Min Temperature 28 °F 30 °F 12 °F (2007)
Degree Days  
Heating Degree Days 32    
Moisture  
Dew Point -13 °F    
Average Humidity 12    
Maximum Humidity 13    
Minimum Humidity 11    
Precipitation  
Precipitation 0.00 in - - ()
Sea Level Pressure  
Sea Level Pressure 29.78 in    
Wind  
Wind Speed 15 mph (SW)    
Max Wind Speed 43 mph    
Max Gust Speed 55 mph    
Visibility 9 miles    
Events      
Averages and records for this station are not official NWS values.
T = Trace of Precipitation, MM = Missing Value Source: NWS Daily Summary

Daily Weather History Graph

Daily Weather History Graph

Search for Another Location

Airport or City:

Astronomy

Jan. 07, 2013 Rise Set
Actual Time 9:44 AM HST 5:43 PM HST
Civil Twilight 9:03 AM HST 6:23 PM HST
Nautical Twilight 8:20 AM HST 7:06 PM HST
Astronomical Twilight 7:39 AM HST 7:47 PM HST
Moon 5:16 AM HST (1/7) 2:10 PM HST (1/7)
Length of Visible Light 9h 19m
Length of Day
7h 59m
Waning Crescent, 21% of the Moon is Illuminated
Jan 7
Waning Crescent
Jan 11
New
Jan 18
First Quarter
Jan 26
Full
Feb 3
Last Quarter

Hourly Weather History & Observations

Time (HST) Temp. Windchill Dew Point Humidity Pressure Visibility Wind Dir Wind Speed Gust Speed Precip Events Conditions
12:16 AM 35.6 °F 26.2 °F -14.8 °F 11% 29.60 in 10.0 mi WNW 15.0 mph - N/A   Overcast
12:36 AM 35.6 °F 26.6 °F -14.8 °F 11% 29.61 in 10.0 mi WNW 13.8 mph - N/A   Overcast
12:56 AM 35.6 °F 25.9 °F - N/A% 29.62 in 10.0 mi WNW 16.1 mph 20.7 mph N/A   Overcast
1:16 AM 35.6 °F 26.2 °F -14.8 °F 11% 29.63 in 10.0 mi WNW 15.0 mph - N/A   Overcast
1:36 AM 35.6 °F 26.6 °F -14.8 °F 11% 29.64 in 10.0 mi WNW 13.8 mph - N/A   Mostly Cloudy
1:56 AM 35.6 °F 24.5 °F -13.0 °F 12% 29.65 in 10.0 mi WNW 20.7 mph - N/A   Overcast
2:16 AM 33.8 °F 22.8 °F - N/A% 29.66 in 10.0 mi WNW 18.4 mph - N/A   Mostly Cloudy
2:36 AM 35.6 °F 25.2 °F - N/A% 29.67 in 10.0 mi WNW 18.4 mph - N/A   Overcast
2:56 AM 35.6 °F 25.9 °F -14.8 °F 11% 29.68 in 10.0 mi NW 16.1 mph - N/A   Overcast
3:16 AM 35.6 °F 25.9 °F - N/A% 29.69 in 10.0 mi NW 16.1 mph - N/A   Overcast
3:36 AM 35.6 °F 26.2 °F - N/A% 29.71 in 10.0 mi WNW 15.0 mph - N/A   Overcast
3:56 AM 33.8 °F 24.8 °F -14.8 °F 12% 29.72 in 10.0 mi WNW 12.7 mph - N/A   Overcast
4:16 AM 35.6 °F 24.5 °F - N/A% 29.74 in 10.0 mi WNW 20.7 mph 27.6 mph N/A   Overcast
4:36 AM 33.8 °F 23.9 °F -14.8 °F 12% 29.74 in 10.0 mi WNW 15.0 mph - N/A   Mostly Cloudy
4:56 AM 33.8 °F 24.3 °F -14.8 °F 12% 29.75 in 10.0 mi West 13.8 mph - N/A   Scattered Clouds
5:16 AM 32.0 °F 21.2 °F -14.8 °F 13% 29.76 in 10.0 mi West 16.1 mph - N/A   Partly Cloudy
5:36 AM 33.8 °F 25.8 °F -14.8 °F 12% 29.78 in 10.0 mi WNW 10.4 mph - N/A   Partly Cloudy
5:56 AM 33.8 °F 26.4 °F -14.8 °F 12% 29.79 in 10.0 mi NW 9.2 mph - N/A   Mostly Cloudy
6:16 AM 33.8 °F 24.8 °F -14.8 °F 12% 29.79 in 10.0 mi West 12.7 mph - N/A   Mostly Cloudy
6:36 AM 33.8 °F 23.5 °F -14.8 °F 12% 29.80 in 10.0 mi West 16.1 mph - N/A   Mostly Cloudy
6:56 AM 33.8 °F 24.8 °F -14.8 °F 12% 29.81 in 10.0 mi West 12.7 mph - N/A   Partly Cloudy
7:16 AM 33.8 °F 24.8 °F -14.8 °F 12% 29.81 in 10.0 mi West 12.7 mph - N/A   Clear
7:36 AM 32.0 °F 23.0 °F -16.6 °F 12% 29.83 in 10.0 mi WSW 11.5 mph - N/A   Clear
7:56 AM 33.8 °F 23.9 °F -16.6 °F 11% 29.84 in 3.0 mi WSW 15.0 mph - N/A   Mostly Cloudy
8:16 AM 33.8 °F 25.3 °F -14.8 °F 12% 29.84 in 4.0 mi West 11.5 mph - N/A   Overcast
8:36 AM 32.0 °F 20.5 °F -16.6 °F 12% 29.86 in 4.0 mi West 18.4 mph - N/A   Overcast
8:56 AM 32.0 °F 23.6 °F -14.8 °F 13% 29.86 in 3.0 mi West 10.4 mph - N/A   Overcast
9:16 AM 30.2 °F 21.3 °F -16.6 °F 13% 29.87 in 10.0 mi West 10.4 mph - N/A   Partly Cloudy
9:36 AM 30.2 °F 21.9 °F -16.6 °F 13% 29.88 in 10.0 mi West 9.2 mph - N/A   Clear
9:56 AM 30.2 °F 22.6 °F -16.6 °F 13% 29.88 in 10.0 mi West 8.1 mph - N/A   Clear
10:16 AM 30.2 °F 23.4 °F -16.6 °F 13% 29.89 in 10.0 mi WSW 6.9 mph - N/A   Clear
10:36 AM 28.4 °F - -18.4 °F 12% 29.90 in 10.0 mi Calm Calm - N/A   Clear
10:56 AM 28.4 °F 22.2 °F -18.4 °F 12% 29.90 in 10.0 mi WSW 5.8 mph - N/A   Clear
11:16 AM 30.2 °F 22.6 °F -16.6 °F 13% 29.91 in 10.0 mi WSW 8.1 mph - N/A   Clear
11:36 AM 33.8 °F 27.0 °F -16.6 °F 11% 29.91 in 10.0 mi SW 8.1 mph - N/A   Clear
11:56 AM 33.8 °F 27.0 °F -14.8 °F 12% 29.91 in 10.0 mi SW 8.1 mph - N/A   Clear
12:16 PM 35.6 °F 30.7 °F -14.8 °F 11% 29.91 in 10.0 mi WSW 5.8 mph - N/A   Clear
12:36 PM 35.6 °F - -14.8 °F 11% 29.91 in 10.0 mi Calm Calm - N/A   Clear
1:16 PM 37.4 °F - -11.2 °F 12% 29.89 in 10.0 mi Calm Calm - N/A   Clear
1:36 PM 37.4 °F 30.3 °F -13.0 °F 11% 29.88 in 10.0 mi SSE 10.4 mph - N/A   Partly Cloudy
1:56 PM 39.2 °F 31.6 °F -11.2 °F 11% 29.88 in 10.0 mi SSE 12.7 mph - N/A   Partly Cloudy
2:16 PM 39.2 °F 31.2 °F -11.2 °F 11% 29.88 in 10.0 mi South 13.8 mph - N/A   Clear
2:36 PM 39.2 °F 32.5 °F -11.2 °F 11% 29.87 in 10.0 mi South 10.4 mph 27.6 mph N/A   Scattered Clouds
2:56 PM 39.2 °F 31.2 °F -11.2 °F 11% 29.87 in 10.0 mi SSE 13.8 mph - N/A   Scattered Clouds
3:16 PM 37.4 °F 28.9 °F -11.2 °F 12% 29.87 in 10.0 mi South 13.8 mph 21.9 mph N/A   Mostly Cloudy
3:36 PM 37.4 °F 28.9 °F -11.2 °F 12% 29.87 in 10.0 mi SSE 13.8 mph 24.2 mph N/A   Overcast
3:56 PM 37.4 °F 28.2 °F -11.2 °F 12% 29.87 in 10.0 mi SSE 16.1 mph 20.7 mph N/A   Overcast
4:16 PM 37.4 °F 27.8 °F -11.2 °F 12% 29.86 in 10.0 mi SSE 17.3 mph 21.9 mph N/A   Overcast
4:36 PM 37.4 °F 29.8 °F -11.2 °F 12% 29.86 in 10.0 mi SE 11.5 mph 17.3 mph N/A   Overcast
4:56 PM 37.4 °F 29.8 °F -11.2 °F 12% 29.85 in 10.0 mi SSE 11.5 mph - N/A   Overcast
5:36 PM 37.4 °F 26.6 °F -11.2 °F 12% 29.84 in 10.0 mi SSE 21.9 mph 28.8 mph N/A   Overcast
5:56 PM 37.4 °F 27.8 °F -11.2 °F 12% 29.83 in 10.0 mi SE 17.3 mph 28.8 mph N/A   Overcast
6:16 PM 37.4 °F 28.5 °F -11.2 °F 12% 29.82 in 10.0 mi SE 15.0 mph 28.8 mph N/A   Overcast
6:56 PM 37.4 °F 29.3 °F -11.2 °F 12% 29.82 in 10.0 mi SE 12.7 mph 20.7 mph N/A   Overcast
7:16 PM 37.4 °F 26.9 °F -11.2 °F 12% 29.81 in 10.0 mi SE 20.7 mph 25.3 mph N/A   Overcast
7:36 PM 37.4 °F 26.9 °F -11.2 °F 12% 29.79 in 10.0 mi SE 20.7 mph 27.6 mph N/A   Overcast
7:56 PM 37.4 °F 26.6 °F -11.2 °F 12% 29.78 in 10.0 mi SE 21.9 mph 29.9 mph N/A   Overcast
8:16 PM 37.4 °F 26.4 °F -11.2 °F 12% 29.77 in 10.0 mi SSE 23.0 mph 29.9 mph N/A   Overcast
8:36 PM 37.4 °F 25.9 °F -11.2 °F 12% 29.76 in 10.0 mi SE 25.3 mph 33.4 mph N/A   Overcast
8:56 PM 37.4 °F 26.4 °F -11.2 °F 12% 29.75 in 10.0 mi SE 23.0 mph 33.4 mph N/A   Overcast
9:16 PM 37.4 °F 25.6 °F -11.2 °F 12% 29.73 in 10.0 mi SSE 26.5 mph 41.4 mph N/A   Overcast
9:36 PM 37.4 °F 25.2 °F -11.2 °F 12% 29.71 in 10.0 mi SE 28.8 mph 36.8 mph N/A   Overcast
9:56 PM 37.4 °F 24.8 °F -11.2 °F 12% 29.69 in 9.0 mi SE 31.1 mph 44.9 mph N/A   Overcast
10:16 PM 37.4 °F 24.0 °F -11.2 °F 12% 29.66 in 9.0 mi SE 35.7 mph 51.8 mph N/A   Overcast
10:36 PM 37.4 °F 24.2 °F -11.2 °F 12% 29.64 in 8.0 mi SE 34.5 mph 46.0 mph N/A   Overcast
10:56 PM 37.4 °F 23.8 °F -11.2 °F 12% 29.63 in 9.0 mi SE 36.8 mph 55.2 mph N/A   Mostly Cloudy
11:16 PM 37.4 °F 23.1 °F -11.2 °F 12% 29.62 in 7.0 mi SE 41.4 mph 49.5 mph N/A   Overcast
11:36 PM 37.4 °F 23.5 °F -11.2 °F 12% 29.60 in 4.0 mi SE 39.1 mph 50.6 mph N/A   Overcast
11:56 PM 37.4 °F 23.0 °F -11.2 °F 12% 29.58 in 4.0 mi SE 42.6 mph 52.9 mph N/A   Overcast